This is the latest recevied weather packets stored in our database for station/object KS4XQ. If no packets are shown the sender has not sent any weather packets the latest 10 day(s).
| Time | Temp. | Humidity | Pressure | Rain* | Wind** | Luminosity | Snow |
|---|---|---|---|---|---|---|---|
| 1777292702 | 12.78° C | 79% | 1022 hPa | 0 mm | - | - | - |
| 1777292100 | 12.22° C | 79% | 1022 hPa | 0 mm | - | - | - |
| 1777290900 | 12.22° C | 79% | 1021.9 hPa | 0 mm | - | - | - |
| 1777284900 | 12.78° C | 82% | 1020.8 hPa | 0 mm | - | - | - |
| 1777284603 | 12.78° C | 82% | 1020.7 hPa | 0 mm | - | - | - |
| 1777269300 | 15° C | 82% | 1019.5 hPa | 0 mm | - | - | - |
| 1777269000 | 15.56° C | 82% | 1019.6 hPa | 0 mm | - | - | - |
| 1777268700 | 15.56° C | 82% | 1019.4 hPa | 0 mm | - | - | - |
| 1777267202 | 15.56° C | 81% | 1019.3 hPa | 0 mm | - | - | - |
| 1777266004 | 15.56° C | 81% | 1019.2 hPa | 0 mm | - | - | - |
| 1777264201 | 16.11° C | 81% | 1018.7 hPa | 0 mm | - | - | - |
| 1777260305 | 17.22° C | 79% | 1018 hPa | 0 mm | - | - | - |
| 1777256102 | 18.89° C | 77% | 1016.7 hPa | 0 mm | - | - | - |
| 1777254302 | 19.44° C | 75% | 1016.3 hPa | 0 mm | - | - | - |
| 1777251902 | 20.56° C | 72% | 1015.5 hPa | 0 mm | - | - | - |
| 1777250703 | 20.56° C | 70% | 1015 hPa | 0 mm | - | - | - |
| 1777246502 | 22.78° C | 60% | 1013.5 hPa | 0 mm | - | - | - |
| 1777245604 | 23.33° C | 59% | 1013.3 hPa | 0 mm | - | - | - |
| 1777244101 | 23.89° C | 58% | 1013.2 hPa | 0 mm | - | - | - |
| 1777243801 | 23.89° C | 56% | 1013 hPa | 0 mm | - | - | - |
| 1777243502 | 23.89° C | 56% | 1013 hPa | 0 mm | - | - | - |
| 1777242903 | 23.89° C | 53% | 1012.9 hPa | 0 mm | - | - | - |
| 1777242602 | 23.89° C | 54% | 1012.8 hPa | 0 mm | - | - | - |
| 1777241401 | 24.44° C | 54% | 1012.9 hPa | 0 mm | - | - | - |
| 1777241101 | 24.44° C | 56% | 1012.9 hPa | 0 mm | - | - | - |
* Rain latest hour (hover to see other rain measurements)
** Current wind speed in m/s (hover to see current wind gust speed)